sensor_id;sensor_type;location;lat;lon;timestamp;pressure;altitude;pressure_sealevel;temperature;humidity
65872;BME280;52653;50.080;21.992;2023-02-21T00:02:24;98093.27;;;9.31;73.88
65872;BME280;52653;50.080;21.992;2023-02-21T00:05:34;98095.30;;;9.25;74.39
65872;BME280;52653;50.080;21.992;2023-02-21T00:08:45;98098.11;;;9.16;75.04
65872;BME280;52653;50.080;21.992;2023-02-21T00:11:48;98104.75;;;9.08;76.36
65872;BME280;52653;50.080;21.992;2023-02-21T00:14:58;98112.61;;;8.99;77.41
65872;BME280;52653;50.080;21.992;2023-02-21T00:18:08;98105.66;;;8.87;78.76
65872;BME280;52653;50.080;21.992;2023-02-21T00:21:18;98105.75;;;8.73;80.48
65872;BME280;52653;50.080;21.992;2023-02-21T00:24:29;98102.46;;;8.61;81.36
65872;BME280;52653;50.080;21.992;2023-02-21T00:27:37;98097.48;;;8.46;82.36
65872;BME280;52653;50.080;21.992;2023-02-21T00:30:49;98093.28;;;8.36;83.29
65872;BME280;52653;50.080;21.992;2023-02-21T00:34:00;98093.20;;;8.30;84.07
65872;BME280;52653;50.080;21.992;2023-02-21T00:37:10;98087.52;;;8.23;84.45
65872;BME280;52653;50.080;21.992;2023-02-21T00:40:21;98080.77;;;8.20;84.41
65872;BME280;52653;50.080;21.992;2023-02-21T00:43:30;98086.58;;;8.18;84.63
65872;BME280;52653;50.080;21.992;2023-02-21T00:46:41;98083.75;;;8.19;84.52
65872;BME280;52653;50.080;21.992;2023-02-21T00:49:51;98073.21;;;8.22;84.08
65872;BME280;52653;50.080;21.992;2023-02-21T00:53:02;98079.45;;;8.26;83.71
65872;BME280;52653;50.080;21.992;2023-02-21T00:56:12;98071.86;;;8.31;82.93
65872;BME280;52653;50.080;21.992;2023-02-21T00:59:22;98074.05;;;8.37;82.36
65872;BME280;52653;50.080;21.992;2023-02-21T01:02:32;98069.77;;;8.42;81.42
65872;BME280;52653;50.080;21.992;2023-02-21T01:05:43;98070.16;;;8.50;80.91
65872;BME280;52653;50.080;21.992;2023-02-21T01:08:53;98059.20;;;8.57;80.22
65872;BME280;52653;50.080;21.992;2023-02-21T01:12:03;98070.08;;;8.64;79.73
65872;BME280;52653;50.080;21.992;2023-02-21T01:15:14;98070.15;;;8.69;79.23
65872;BME280;52653;50.080;21.992;2023-02-21T01:18:24;98069.16;;;8.75;78.81
65872;BME280;52653;50.080;21.992;2023-02-21T01:21:34;98069.27;;;8.80;78.51
65872;BME280;52653;50.080;21.992;2023-02-21T01:24:47;98074.12;;;8.82;78.17
65872;BME280;52653;50.080;21.992;2023-02-21T01:27:58;98067.48;;;8.81;77.92
65872;BME280;52653;50.080;21.992;2023-02-21T01:31:08;98079.55;;;8.82;77.63
65872;BME280;52653;50.080;21.992;2023-02-21T01:34:18;98076.20;;;8.83;77.50
65872;BME280;52653;50.080;21.992;2023-02-21T01:37:29;98066.68;;;8.86;77.06
65872;BME280;52653;50.080;21.992;2023-02-21T01:40:40;98072.56;;;8.90;76.84
65872;BME280;52653;50.080;21.992;2023-02-21T01:44:03;98078.27;;;8.94;76.43
65872;BME280;52653;50.080;21.992;2023-02-21T01:47:14;98075.06;;;8.97;76.33
65872;BME280;52653;50.080;21.992;2023-02-21T01:50:28;98074.41;;;8.94;76.34
65872;BME280;52653;50.080;21.992;2023-02-21T01:53:33;98064.70;;;8.90;76.71
65872;BME280;52653;50.080;21.992;2023-02-21T01:56:37;98076.27;;;8.88;77.07
65872;BME280;52653;50.080;21.992;2023-02-21T01:59:50;98057.25;;;8.86;77.64
65872;BME280;52653;50.080;21.992;2023-02-21T02:03:08;98048.91;;;8.83;77.99
65872;BME280;52653;50.080;21.992;2023-02-21T02:06:19;98043.02;;;8.81;78.00
65872;BME280;52653;50.080;21.992;2023-02-21T02:09:31;98043.96;;;8.77;78.09
65872;BME280;52653;50.080;21.992;2023-02-21T02:13:16;98020.44;;;8.72;78.05
65872;BME280;52653;50.080;21.992;2023-02-21T02:16:13;98018.02;;;8.71;77.78
65872;BME280;52653;50.080;21.992;2023-02-21T02:19:54;98028.48;;;8.73;77.70
65872;BME280;52653;50.080;21.992;2023-02-21T02:23:08;98020.56;;;8.76;77.21
65872;BME280;52653;50.080;21.992;2023-02-21T02:26:23;98010.36;;;8.79;76.41
65872;BME280;52653;50.080;21.992;2023-02-21T02:29:34;98017.83;;;8.81;76.07
65872;BME280;52653;50.080;21.992;2023-02-21T02:32:53;98018.02;;;8.80;75.94
65872;BME280;52653;50.080;21.992;2023-02-21T02:35:51;98014.84;;;8.82;75.92
65872;BME280;52653;50.080;21.992;2023-02-21T02:38:54;98029.29;;;8.85;75.54
65872;BME280;52653;50.080;21.992;2023-02-21T02:41:57;98024.15;;;8.90;75.40
65872;BME280;52653;50.080;21.992;2023-02-21T02:44:52;98015.52;;;8.93;75.33
65872;BME280;52653;50.080;21.992;2023-02-21T02:47:50;98026.19;;;8.93;75.32
65872;BME280;52653;50.080;21.992;2023-02-21T02:50:39;98020.98;;;8.90;75.29
65872;BME280;52653;50.080;21.992;2023-02-21T02:53:35;98013.02;;;8.85;75.37
65872;BME280;52653;50.080;21.992;2023-02-21T02:56:28;98031.42;;;8.83;75.49
65872;BME280;52653;50.080;21.992;2023-02-21T02:59:24;98034.58;;;8.83;75.38
65872;BME280;52653;50.080;21.992;2023-02-21T03:02:44;98030.86;;;8.85;75.42
65872;BME280;52653;50.080;21.992;2023-02-21T03:05:57;98025.98;;;8.84;75.45
65872;BME280;52653;50.080;21.992;2023-02-21T03:08:59;98026.05;;;8.82;75.68
65872;BME280;52653;50.080;21.992;2023-02-21T03:12:01;98018.09;;;8.77;75.88
65872;BME280;52653;50.080;21.992;2023-02-21T03:15:02;98013.23;;;8.74;76.14
65872;BME280;52653;50.080;21.992;2023-02-21T03:18:02;98020.56;;;8.75;76.20
65872;BME280;52653;50.080;21.992;2023-02-21T03:20:59;98009.02;;;8.76;76.03
65872;BME280;52653;50.080;21.992;2023-02-21T03:23:53;98022.11;;;8.77;76.17
65872;BME280;52653;50.080;21.992;2023-02-21T03:26:50;98020.73;;;8.75;76.38
65872;BME280;52653;50.080;21.992;2023-02-21T03:29:54;98017.45;;;8.73;76.49
65872;BME280;52653;50.080;21.992;2023-02-21T03:32:50;98023.58;;;8.73;76.58
65872;BME280;52653;50.080;21.992;2023-02-21T03:35:44;98017.60;;;8.74;76.46
65872;BME280;52653;50.080;21.992;2023-02-21T03:38:37;98024.22;;;8.77;76.39
65872;BME280;52653;50.080;21.992;2023-02-21T03:41:30;98024.55;;;8.78;76.49
65872;BME280;52653;50.080;21.992;2023-02-21T03:44:23;98021.41;;;8.77;76.51
65872;BME280;52653;50.080;21.992;2023-02-21T03:47:15;98030.56;;;8.73;76.80
65872;BME280;52653;50.080;21.992;2023-02-21T03:50:08;98015.25;;;8.70;77.11
65872;BME280;52653;50.080;21.992;2023-02-21T03:53:02;98026.27;;;8.70;77.34
65872;BME280;52653;50.080;21.992;2023-02-21T03:55:55;98021.66;;;8.73;77.33
65872;BME280;52653;50.080;21.992;2023-02-21T03:58:47;98022.31;;;8.76;77.31
65872;BME280;52653;50.080;21.992;2023-02-21T04:01:41;98019.49;;;8.77;77.40
65872;BME280;52653;50.080;21.992;2023-02-21T04:04:34;98016.55;;;8.75;77.59
65872;BME280;52653;50.080;21.992;2023-02-21T04:07:29;98017.34;;;8.71;77.76
65872;BME280;52653;50.080;21.992;2023-02-21T04:10:22;98024.39;;;8.68;78.09
65872;BME280;52653;50.080;21.992;2023-02-21T04:13:16;98025.60;;;8.69;78.06
65872;BME280;52653;50.080;21.992;2023-02-21T04:16:09;98033.59;;;8.71;78.07
65872;BME280;52653;50.080;21.992;2023-02-21T04:19:03;98023.05;;;8.73;78.05
65872;BME280;52653;50.080;21.992;2023-02-21T04:21:56;98024.41;;;8.75;78.03
65872;BME280;52653;50.080;21.992;2023-02-21T04:24:49;98020.06;;;8.74;78.02
65872;BME280;52653;50.080;21.992;2023-02-21T04:27:42;98019.95;;;8.71;78.26
65872;BME280;52653;50.080;21.992;2023-02-21T04:30:28;98027.18;;;8.68;78.60
65872;BME280;52653;50.080;21.992;2023-02-21T04:33:22;98002.70;;;8.69;78.72
65872;BME280;52653;50.080;21.992;2023-02-21T04:36:15;98014.70;;;8.71;78.73
65872;BME280;52653;50.080;21.992;2023-02-21T04:39:09;98015.35;;;8.74;78.61
65872;BME280;52653;50.080;21.992;2023-02-21T04:42:02;98011.27;;;8.77;78.26
65872;BME280;52653;50.080;21.992;2023-02-21T04:44:57;98011.58;;;8.80;77.98
65872;BME280;52653;50.080;21.992;2023-02-21T04:47:51;98018.52;;;8.82;78.17
65872;BME280;52653;50.080;21.992;2023-02-21T04:50:42;98012.96;;;8.80;78.22
65872;BME280;52653;50.080;21.992;2023-02-21T04:53:29;98007.24;;;8.78;78.18
65872;BME280;52653;50.080;21.992;2023-02-21T04:56:25;98012.84;;;8.77;78.10
65872;BME280;52653;50.080;21.992;2023-02-21T04:59:19;98019.30;;;8.78;78.19
65872;BME280;52653;50.080;21.992;2023-02-21T05:02:14;98014.91;;;8.79;78.39
65872;BME280;52653;50.080;21.992;2023-02-21T05:05:08;98019.22;;;8.82;78.47
65872;BME280;52653;50.080;21.992;2023-02-21T05:08:02;98003.46;;;8.83;78.43
65872;BME280;52653;50.080;21.992;2023-02-21T05:10:55;98020.98;;;8.81;77.99
65872;BME280;52653;50.080;21.992;2023-02-21T05:13:50;98015.45;;;8.79;78.24
65872;BME280;52653;50.080;21.992;2023-02-21T05:16:44;98016.87;;;8.76;78.67
65872;BME280;52653;50.080;21.992;2023-02-21T05:19:39;98019.39;;;8.73;79.11
65872;BME280;52653;50.080;21.992;2023-02-21T05:22:31;98011.02;;;8.72;79.44
65872;BME280;52653;50.080;21.992;2023-02-21T05:25:25;98003.77;;;8.69;79.88
65872;BME280;52653;50.080;21.992;2023-02-21T05:28:17;98008.02;;;8.66;80.14
65872;BME280;52653;50.080;21.992;2023-02-21T05:31:12;98016.81;;;8.62;80.46
65872;BME280;52653;50.080;21.992;2023-02-21T05:34:06;98009.41;;;8.56;80.71
65872;BME280;52653;50.080;21.992;2023-02-21T05:36:59;98012.64;;;8.52;80.67
65872;BME280;52653;50.080;21.992;2023-02-21T05:39:52;98014.90;;;8.53;80.84
65872;BME280;52653;50.080;21.992;2023-02-21T05:42:47;98016.10;;;8.54;80.99
65872;BME280;52653;50.080;21.992;2023-02-21T05:45:40;98012.80;;;8.53;80.99
65872;BME280;52653;50.080;21.992;2023-02-21T05:48:35;98018.69;;;8.55;80.75
65872;BME280;52653;50.080;21.992;2023-02-21T05:51:32;98021.46;;;8.57;80.80
65872;BME280;52653;50.080;21.992;2023-02-21T05:54:26;98018.08;;;8.59;80.71
65872;BME280;52653;50.080;21.992;2023-02-21T05:57:19;98024.71;;;8.60;80.78
65872;BME280;52653;50.080;21.992;2023-02-21T06:00:17;98034.87;;;8.59;81.65
65872;BME280;52653;50.080;21.992;2023-02-21T06:03:10;98038.84;;;8.52;82.70
65872;BME280;52653;50.080;21.992;2023-02-21T06:05:59;98043.05;;;8.42;83.62
65872;BME280;52653;50.080;21.992;2023-02-21T06:08:52;98033.55;;;8.35;84.18
65872;BME280;52653;50.080;21.992;2023-02-21T06:11:48;98025.95;;;8.29;84.35
65872;BME280;52653;50.080;21.992;2023-02-21T06:14:41;98042.27;;;8.24;84.97
65872;BME280;52653;50.080;21.992;2023-02-21T06:17:36;98050.58;;;8.19;85.40
65872;BME280;52653;50.080;21.992;2023-02-21T06:20:29;98049.27;;;8.14;85.49
65872;BME280;52653;50.080;21.992;2023-02-21T06:23:23;98046.30;;;8.14;85.50
65872;BME280;52653;50.080;21.992;2023-02-21T06:26:18;98049.08;;;8.15;85.39
65872;BME280;52653;50.080;21.992;2023-02-21T06:29:12;98047.30;;;8.16;85.85
65872;BME280;52653;50.080;21.992;2023-02-21T06:32:06;98050.48;;;8.15;86.32
65872;BME280;52653;50.080;21.992;2023-02-21T06:34:52;98054.60;;;8.08;87.38
65872;BME280;52653;50.080;21.992;2023-02-21T06:37:46;98049.64;;;8.03;88.02
65872;BME280;52653;50.080;21.992;2023-02-21T06:40:39;98062.95;;;7.98;88.66
65872;BME280;52653;50.080;21.992;2023-02-21T06:43:32;98065.27;;;7.95;88.88
65872;BME280;52653;50.080;21.992;2023-02-21T06:46:20;98057.79;;;7.94;89.08
65872;BME280;52653;50.080;21.992;2023-02-21T06:49:14;98063.86;;;7.96;88.70
65872;BME280;52653;50.080;21.992;2023-02-21T06:52:07;98057.77;;;7.95;89.09
65872;BME280;52653;50.080;21.992;2023-02-21T06:55:00;98060.98;;;7.92;89.31
65872;BME280;52653;50.080;21.992;2023-02-21T06:57:53;98061.53;;;7.90;89.82
65872;BME280;52653;50.080;21.992;2023-02-21T07:00:45;98056.67;;;7.88;90.02
65872;BME280;52653;50.080;21.992;2023-02-21T07:03:40;98057.55;;;7.87;90.38
65872;BME280;52653;50.080;21.992;2023-02-21T07:06:34;98049.50;;;7.89;89.99
65872;BME280;52653;50.080;21.992;2023-02-21T07:09:27;98057.60;;;7.95;90.10
65872;BME280;52653;50.080;21.992;2023-02-21T07:12:20;98049.77;;;8.05;89.91
65872;BME280;52653;50.080;21.992;2023-02-21T07:15:14;98053.08;;;8.15;89.33
65872;BME280;52653;50.080;21.992;2023-02-21T07:18:07;98055.21;;;8.23;88.73
65872;BME280;52653;50.080;21.992;2023-02-21T07:21:00;98060.83;;;8.33;88.20
65872;BME280;52653;50.080;21.992;2023-02-21T07:23:47;98057.13;;;8.36;88.13
65872;BME280;52653;50.080;21.992;2023-02-21T07:26:40;98060.11;;;8.34;87.77
65872;BME280;52653;50.080;21.992;2023-02-21T07:29:35;98052.07;;;8.35;87.55
65872;BME280;52653;50.080;21.992;2023-02-21T07:32:28;98038.75;;;8.38;87.57
65872;BME280;52653;50.080;21.992;2023-02-21T07:35:23;98041.71;;;8.39;86.99
65872;BME280;52653;50.080;21.992;2023-02-21T07:38:22;98058.83;;;8.48;86.88
65872;BME280;52653;50.080;21.992;2023-02-21T07:41:17;98061.77;;;8.60;85.75
65872;BME280;52653;50.080;21.992;2023-02-21T07:44:10;98069.94;;;8.72;84.92
65872;BME280;52653;50.080;21.992;2023-02-21T07:47:04;98078.34;;;8.89;84.69
65872;BME280;52653;50.080;21.992;2023-02-21T07:49:57;98096.41;;;8.96;84.50
65872;BME280;52653;50.080;21.992;2023-02-21T07:52:50;98098.45;;;8.80;86.37
65872;BME280;52653;50.080;21.992;2023-02-21T07:55:32;98100.52;;;8.63;87.88
65872;BME280;52653;50.080;21.992;2023-02-21T07:58:19;98101.09;;;8.49;88.32
65872;BME280;52653;50.080;21.992;2023-02-21T08:01:05;98103.48;;;8.43;88.65
65872;BME280;52653;50.080;21.992;2023-02-21T08:03:58;98107.11;;;8.34;89.35
65872;BME280;52653;50.080;21.992;2023-02-21T08:06:59;98098.10;;;8.29;89.64
65872;BME280;52653;50.080;21.992;2023-02-21T08:09:52;98109.04;;;8.21;90.22
65872;BME280;52653;50.080;21.992;2023-02-21T08:12:46;98101.52;;;8.22;90.56
65872;BME280;52653;50.080;21.992;2023-02-21T08:15:39;98094.48;;;8.26;89.87
65872;BME280;52653;50.080;21.992;2023-02-21T08:18:30;98096.70;;;8.41;89.27
65872;BME280;52653;50.080;21.992;2023-02-21T08:21:25;98085.55;;;8.59;87.89
65872;BME280;52653;50.080;21.992;2023-02-21T08:24:19;98105.14;;;8.78;87.47
65872;BME280;52653;50.080;21.992;2023-02-21T08:27:12;98099.89;;;8.96;86.12
65872;BME280;52653;50.080;21.992;2023-02-21T08:29:58;98101.05;;;9.09;84.90
65872;BME280;52653;50.080;21.992;2023-02-21T08:32:51;98109.38;;;9.29;84.35
65872;BME280;52653;50.080;21.992;2023-02-21T08:35:29;98103.50;;;9.43;83.02
65872;BME280;52653;50.080;21.992;2023-02-21T08:38:22;98103.56;;;9.57;81.89
65872;BME280;52653;50.080;21.992;2023-02-21T08:41:15;98102.34;;;9.65;80.94
65872;BME280;52653;50.080;21.992;2023-02-21T08:44:09;98105.16;;;9.72;80.19
65872;BME280;52653;50.080;21.992;2023-02-21T08:47:01;98123.19;;;9.64;79.71
65872;BME280;52653;50.080;21.992;2023-02-21T08:49:54;98133.35;;;9.63;79.87
65872;BME280;52653;50.080;21.992;2023-02-21T08:52:34;98130.29;;;9.68;79.80
65872;BME280;52653;50.080;21.992;2023-02-21T08:55:29;98140.59;;;9.77;78.89
65872;BME280;52653;50.080;21.992;2023-02-21T08:58:43;98136.23;;;9.92;78.69
65872;BME280;52653;50.080;21.992;2023-02-21T09:01:36;98150.84;;;9.96;78.41
65872;BME280;52653;50.080;21.992;2023-02-21T09:04:29;98149.32;;;10.01;77.57
65872;BME280;52653;50.080;21.992;2023-02-21T09:07:22;98145.73;;;9.98;77.31
65872;BME280;52653;50.080;21.992;2023-02-21T09:10:10;98152.55;;;9.83;76.86
65872;BME280;52653;50.080;21.992;2023-02-21T09:13:04;98146.06;;;9.75;77.17
65872;BME280;52653;50.080;21.992;2023-02-21T09:15:49;98147.92;;;9.78;77.43
65872;BME280;52653;50.080;21.992;2023-02-21T09:18:42;98159.41;;;9.89;76.05
65872;BME280;52653;50.080;21.992;2023-02-21T09:21:36;98173.11;;;10.04;75.64
65872;BME280;52653;50.080;21.992;2023-02-21T09:24:52;98172.37;;;10.22;75.47
65872;BME280;52653;50.080;21.992;2023-02-21T09:27:37;98165.66;;;10.24;74.81
65872;BME280;52653;50.080;21.992;2023-02-21T09:30:31;98170.85;;;10.27;74.88
65872;BME280;52653;50.080;21.992;2023-02-21T09:33:22;98179.63;;;10.26;74.25
65872;BME280;52653;50.080;21.992;2023-02-21T09:36:15;98181.86;;;10.29;74.44
65872;BME280;52653;50.080;21.992;2023-02-21T09:39:13;98174.77;;;10.32;74.71
65872;BME280;52653;50.080;21.992;2023-02-21T09:41:59;98187.04;;;10.40;74.02
65872;BME280;52653;50.080;21.992;2023-02-21T09:44:52;98182.34;;;10.53;73.66
65872;BME280;52653;50.080;21.992;2023-02-21T09:47:45;98189.99;;;10.48;73.50
65872;BME280;52653;50.080;21.992;2023-02-21T09:50:45;98196.41;;;10.36;74.33
65872;BME280;52653;50.080;21.992;2023-02-21T09:53:41;98205.73;;;10.18;75.64
65872;BME280;52653;50.080;21.992;2023-02-21T09:56:38;98219.09;;;9.99;76.69
65872;BME280;52653;50.080;21.992;2023-02-21T09:59:32;98210.37;;;9.82;77.77
65872;BME280;52653;50.080;21.992;2023-02-21T10:02:38;98224.32;;;9.75;78.33
65872;BME280;52653;50.080;21.992;2023-02-21T10:05:40;98233.80;;;9.66;79.35
65872;BME280;52653;50.080;21.992;2023-02-21T10:08:32;98234.48;;;9.67;80.14
65872;BME280;52653;50.080;21.992;2023-02-21T10:11:38;98234.14;;;9.66;79.72
65872;BME280;52653;50.080;21.992;2023-02-21T10:14:34;98228.23;;;9.73;79.50
65872;BME280;52653;50.080;21.992;2023-02-21T10:17:35;98225.56;;;9.83;79.16
65872;BME280;52653;50.080;21.992;2023-02-21T10:20:34;98222.95;;;9.99;79.00
65872;BME280;52653;50.080;21.992;2023-02-21T10:23:30;98221.47;;;10.11;78.44
65872;BME280;52653;50.080;21.992;2023-02-21T10:26:27;98229.59;;;10.17;75.96
65872;BME280;52653;50.080;21.992;2023-02-21T10:29:24;98227.84;;;10.16;74.61
65872;BME280;52653;50.080;21.992;2023-02-21T10:32:10;98234.89;;;10.24;74.12
65872;BME280;52653;50.080;21.992;2023-02-21T10:35:06;98241.30;;;10.27;73.00
65872;BME280;52653;50.080;21.992;2023-02-21T10:38:00;98241.65;;;10.35;72.47
65872;BME280;52653;50.080;21.992;2023-02-21T10:40:55;98235.86;;;10.51;71.90
65872;BME280;52653;50.080;21.992;2023-02-21T10:43:52;98248.03;;;10.70;71.33
65872;BME280;52653;50.080;21.992;2023-02-21T10:46:48;98245.46;;;10.82;69.83
65872;BME280;52653;50.080;21.992;2023-02-21T10:49:47;98250.31;;;10.92;69.85
65872;BME280;52653;50.080;21.992;2023-02-21T10:52:48;98229.23;;;11.00;68.52
65872;BME280;52653;50.080;21.992;2023-02-21T10:55:41;98257.29;;;10.93;67.44
65872;BME280;52653;50.080;21.992;2023-02-21T10:58:35;98254.76;;;11.04;68.76
65872;BME280;52653;50.080;21.992;2023-02-21T11:01:29;98238.69;;;11.28;67.58
65872;BME280;52653;50.080;21.992;2023-02-21T11:04:29;98238.50;;;11.68;67.60
65872;BME280;52653;50.080;21.992;2023-02-21T11:07:25;98240.72;;;12.02;66.31
65872;BME280;52653;50.080;21.992;2023-02-21T11:10:30;98228.69;;;12.28;64.84
65872;BME280;52653;50.080;21.992;2023-02-21T11:13:24;98228.70;;;12.61;62.94
65872;BME280;52653;50.080;21.992;2023-02-21T11:16:11;98240.91;;;12.71;61.24
65872;BME280;52653;50.080;21.992;2023-02-21T11:19:10;98238.37;;;12.78;60.21
65872;BME280;52653;50.080;21.992;2023-02-21T11:22:04;98234.89;;;12.56;57.45
65872;BME280;52653;50.080;21.992;2023-02-21T11:25:03;98235.98;;;12.19;55.52
65872;BME280;52653;50.080;21.992;2023-02-21T11:28:04;98240.45;;;11.87;55.02
65872;BME280;52653;50.080;21.992;2023-02-21T11:31:12;98261.73;;;11.66;54.84
65872;BME280;52653;50.080;21.992;2023-02-21T11:34:07;98257.65;;;11.68;54.92
65872;BME280;52653;50.080;21.992;2023-02-21T11:37:04;98250.55;;;11.70;55.13
65872;BME280;52653;50.080;21.992;2023-02-21T11:39:57;98267.92;;;11.71;55.81
65872;BME280;52653;50.080;21.992;2023-02-21T11:42:52;98262.94;;;11.54;55.45
65872;BME280;52653;50.080;21.992;2023-02-21T11:46:09;98269.38;;;11.43;55.93
65872;BME280;52653;50.080;21.992;2023-02-21T11:49:04;98274.92;;;11.46;55.48
65872;BME280;52653;50.080;21.992;2023-02-21T11:52:00;98269.12;;;11.65;54.60
65872;BME280;52653;50.080;21.992;2023-02-21T11:54:55;98272.54;;;11.89;53.77
65872;BME280;52653;50.080;21.992;2023-02-21T11:57:46;98266.70;;;12.21;53.67
65872;BME280;52653;50.080;21.992;2023-02-21T12:00:48;98269.31;;;12.51;54.08
65872;BME280;52653;50.080;21.992;2023-02-21T12:04:03;98276.23;;;12.66;52.78
65872;BME280;52653;50.080;21.992;2023-02-21T12:07:05;98296.55;;;12.64;53.76
65872;BME280;52653;50.080;21.992;2023-02-21T12:10:07;98303.44;;;12.39;54.84
65872;BME280;52653;50.080;21.992;2023-02-21T12:13:08;98294.58;;;11.92;54.86
65872;BME280;52653;50.080;21.992;2023-02-21T12:16:15;98292.16;;;11.58;55.84
65872;BME280;52653;50.080;21.992;2023-02-21T12:19:18;98302.19;;;11.30;55.60
65872;BME280;52653;50.080;21.992;2023-02-21T12:22:26;98305.23;;;11.00;55.93
65872;BME280;52653;50.080;21.992;2023-02-21T12:25:22;98309.73;;;10.79;55.85
65872;BME280;52653;50.080;21.992;2023-02-21T12:28:20;98314.05;;;10.67;55.45
65872;BME280;52653;50.080;21.992;2023-02-21T12:31:20;98304.94;;;10.67;54.93
65872;BME280;52653;50.080;21.992;2023-02-21T12:34:25;98307.55;;;10.67;55.62
65872;BME280;52653;50.080;21.992;2023-02-21T12:37:27;98305.85;;;10.73;54.67
65872;BME280;52653;50.080;21.992;2023-02-21T12:40:23;98308.42;;;10.75;54.95
65872;BME280;52653;50.080;21.992;2023-02-21T12:43:27;98306.96;;;10.85;55.36
65872;BME280;52653;50.080;21.992;2023-02-21T12:46:27;98308.02;;;11.07;54.26
65872;BME280;52653;50.080;21.992;2023-02-21T12:49:25;98307.48;;;11.36;52.39
65872;BME280;52653;50.080;21.992;2023-02-21T12:52:22;98305.14;;;11.65;50.94
65872;BME280;52653;50.080;21.992;2023-02-21T12:55:17;98298.45;;;11.79;50.32
65872;BME280;52653;50.080;21.992;2023-02-21T12:58:14;98296.01;;;11.98;49.51
65872;BME280;52653;50.080;21.992;2023-02-21T13:01:13;98303.82;;;12.08;48.60
65872;BME280;52653;50.080;21.992;2023-02-21T13:04:21;98306.95;;;12.15;48.22
65872;BME280;52653;50.080;21.992;2023-02-21T13:07:19;98306.33;;;12.19;48.57
65872;BME280;52653;50.080;21.992;2023-02-21T13:10:27;98307.02;;;12.06;48.41
65872;BME280;52653;50.080;21.992;2023-02-21T13:13:25;98304.35;;;11.95;48.42
65872;BME280;52653;50.080;21.992;2023-02-21T13:16:23;98302.97;;;11.74;49.01
65872;BME280;52653;50.080;21.992;2023-02-21T13:19:17;98307.14;;;11.70;49.99
65872;BME280;52653;50.080;21.992;2023-02-21T13:22:11;98303.04;;;11.58;49.78
65872;BME280;52653;50.080;21.992;2023-02-21T13:25:19;98303.63;;;11.49;49.40
65872;BME280;52653;50.080;21.992;2023-02-21T13:28:16;98309.14;;;11.39;49.76
65872;BME280;52653;50.080;21.992;2023-02-21T13:31:04;98307.56;;;11.33;50.07
65872;BME280;52653;50.080;21.992;2023-02-21T13:34:02;98308.50;;;11.37;50.70
65872;BME280;52653;50.080;21.992;2023-02-21T13:37:01;98313.14;;;11.41;50.73
65872;BME280;52653;50.080;21.992;2023-02-21T13:39:58;98316.98;;;11.56;50.51
65872;BME280;52653;50.080;21.992;2023-02-21T13:43:00;98315.88;;;11.78;49.69
65872;BME280;52653;50.080;21.992;2023-02-21T13:45:49;98318.14;;;11.99;49.82
65872;BME280;52653;50.080;21.992;2023-02-21T13:48:32;98325.62;;;12.08;49.92
65872;BME280;52653;50.080;21.992;2023-02-21T13:51:47;98320.70;;;12.02;49.73
65872;BME280;52653;50.080;21.992;2023-02-21T13:58:42;98332.92;;;11.92;51.00
65872;BME280;52653;50.080;21.992;2023-02-21T14:01:43;98324.08;;;11.94;49.86
65872;BME280;52653;50.080;21.992;2023-02-21T14:05:00;98328.98;;;12.07;50.64
65872;BME280;52653;50.080;21.992;2023-02-21T14:08:04;98333.64;;;12.16;51.09
65872;BME280;52653;50.080;21.992;2023-02-21T14:11:00;98331.56;;;12.02;51.07
65872;BME280;52653;50.080;21.992;2023-02-21T14:14:05;98341.84;;;11.72;51.15
65872;BME280;52653;50.080;21.992;2023-02-21T14:17:04;98349.91;;;11.45;51.67
65872;BME280;52653;50.080;21.992;2023-02-21T14:20:00;98356.34;;;11.34;52.86
65872;BME280;52653;50.080;21.992;2023-02-21T14:22:58;98367.48;;;11.15;53.05
65872;BME280;52653;50.080;21.992;2023-02-21T14:25:59;98364.02;;;10.91;52.75
65872;BME280;52653;50.080;21.992;2023-02-21T14:29:11;98367.46;;;10.70;52.94
65872;BME280;52653;50.080;21.992;2023-02-21T14:32:25;98371.55;;;10.51;53.33
65872;BME280;52653;50.080;21.992;2023-02-21T14:35:30;98376.89;;;10.39;53.73
65872;BME280;52653;50.080;21.992;2023-02-21T14:38:22;98379.05;;;10.27;54.37
65872;BME280;52653;50.080;21.992;2023-02-21T14:41:20;98378.02;;;10.16;54.91
65872;BME280;52653;50.080;21.992;2023-02-21T14:44:24;98385.73;;;10.07;55.43
65872;BME280;52653;50.080;21.992;2023-02-21T14:47:35;98382.10;;;10.03;55.60
65872;BME280;52653;50.080;21.992;2023-02-21T14:50:37;98390.05;;;10.10;55.90
65872;BME280;52653;50.080;21.992;2023-02-21T14:53:51;98401.98;;;10.19;55.90
65872;BME280;52653;50.080;21.992;2023-02-21T14:56:53;98395.80;;;10.22;56.12
65872;BME280;52653;50.080;21.992;2023-02-21T15:00:05;98401.10;;;10.19;56.55
65872;BME280;52653;50.080;21.992;2023-02-21T15:02:50;98403.19;;;10.10;56.55
65872;BME280;52653;50.080;21.992;2023-02-21T15:06:06;98407.23;;;10.09;56.93
65872;BME280;52653;50.080;21.992;2023-02-21T15:08:51;98405.20;;;10.06;56.98
65872;BME280;52653;50.080;21.992;2023-02-21T15:11:46;98414.09;;;9.99;56.16
65872;BME280;52653;50.080;21.992;2023-02-21T15:14:45;98412.47;;;9.91;55.86
65872;BME280;52653;50.080;21.992;2023-02-21T15:17:30;98421.58;;;9.82;56.18
65872;BME280;52653;50.080;21.992;2023-02-21T15:20:17;98418.90;;;9.73;56.25
65872;BME280;52653;50.080;21.992;2023-02-21T15:23:00;98418.85;;;9.67;56.01
65872;BME280;52653;50.080;21.992;2023-02-21T15:25:51;98429.30;;;9.59;56.61
65872;BME280;52653;50.080;21.992;2023-02-21T15:28:38;98437.72;;;9.48;56.96
65872;BME280;52653;50.080;21.992;2023-02-21T15:31:37;98433.13;;;9.38;56.22
65872;BME280;52653;50.080;21.992;2023-02-21T15:34:35;98443.42;;;9.29;56.45
65872;BME280;52653;50.080;21.992;2023-02-21T15:37:31;98450.92;;;9.18;56.83
65872;BME280;52653;50.080;21.992;2023-02-21T15:40:21;98454.93;;;9.08;57.37
65872;BME280;52653;50.080;21.992;2023-02-21T15:43:26;98456.23;;;9.01;57.85
65872;BME280;52653;50.080;21.992;2023-02-21T15:46:12;98464.25;;;8.92;58.09